sensor_id;sensor_type;location;lat;lon;timestamp;P1;durP1;ratioP1;P2;durP2;ratioP2
18576;SDS011;9418;52.694;13.294;2023-11-21T00:00:20;5.13;;;4.50;;
18576;SDS011;9418;52.694;13.294;2023-11-21T00:02:47;4.83;;;4.37;;
18576;SDS011;9418;52.694;13.294;2023-11-21T00:05:14;5.10;;;4.60;;
18576;SDS011;9418;52.694;13.294;2023-11-21T00:07:41;5.73;;;4.80;;
18576;SDS011;9418;52.694;13.294;2023-11-21T00:10:10;5.97;;;5.20;;
18576;SDS011;9418;52.694;13.294;2023-11-21T00:12:39;4.90;;;4.50;;
18576;SDS011;9418;52.694;13.294;2023-11-21T00:15:07;6.43;;;5.27;;
18576;SDS011;9418;52.694;13.294;2023-11-21T00:17:36;5.90;;;5.30;;
18576;SDS011;9418;52.694;13.294;2023-11-21T00:20:03;5.80;;;5.30;;
18576;SDS011;9418;52.694;13.294;2023-11-21T00:22:31;6.60;;;5.57;;
18576;SDS011;9418;52.694;13.294;2023-11-21T00:24:58;6.20;;;5.20;;
18576;SDS011;9418;52.694;13.294;2023-11-21T00:27:26;7.23;;;6.47;;
18576;SDS011;9418;52.694;13.294;2023-11-21T00:29:52;8.50;;;6.00;;
18576;SDS011;9418;52.694;13.294;2023-11-21T00:32:19;7.80;;;6.40;;
18576;SDS011;9418;52.694;13.294;2023-11-21T00:34:45;6.53;;;5.83;;
18576;SDS011;9418;52.694;13.294;2023-11-21T00:37:12;8.70;;;7.10;;
18576;SDS011;9418;52.694;13.294;2023-11-21T00:39:38;6.30;;;5.70;;
18576;SDS011;9418;52.694;13.294;2023-11-21T00:42:05;6.33;;;5.73;;
18576;SDS011;9418;52.694;13.294;2023-11-21T00:44:34;8.63;;;6.50;;
18576;SDS011;9418;52.694;13.294;2023-11-21T00:47:03;6.77;;;6.13;;
18576;SDS011;9418;52.694;13.294;2023-11-21T00:49:30;8.73;;;6.33;;
18576;SDS011;9418;52.694;13.294;2023-11-21T00:51:57;6.77;;;5.40;;
18576;SDS011;9418;52.694;13.294;2023-11-21T00:54:23;5.93;;;5.43;;
18576;SDS011;9418;52.694;13.294;2023-11-21T00:56:50;6.10;;;4.87;;
18576;SDS011;9418;52.694;13.294;2023-11-21T00:59:17;6.00;;;5.40;;
18576;SDS011;9418;52.694;13.294;2023-11-21T01:01:44;5.70;;;5.20;;
18576;SDS011;9418;52.694;13.294;2023-11-21T01:04:11;6.00;;;5.40;;
18576;SDS011;9418;52.694;13.294;2023-11-21T01:06:38;6.73;;;5.10;;
18576;SDS011;9418;52.694;13.294;2023-11-21T01:09:04;4.90;;;4.50;;
18576;SDS011;9418;52.694;13.294;2023-11-21T01:11:33;5.97;;;4.60;;
18576;SDS011;9418;52.694;13.294;2023-11-21T01:14:01;6.23;;;5.63;;
18576;SDS011;9418;52.694;13.294;2023-11-21T01:16:29;5.07;;;4.67;;
18576;SDS011;9418;52.694;13.294;2023-11-21T01:18:58;4.73;;;4.43;;
18576;SDS011;9418;52.694;13.294;2023-11-21T01:21:26;4.73;;;4.43;;
18576;SDS011;9418;52.694;13.294;2023-11-21T01:23:53;5.30;;;4.83;;
18576;SDS011;9418;52.694;13.294;2023-11-21T01:26:19;6.43;;;5.27;;
18576;SDS011;9418;52.694;13.294;2023-11-21T01:28:46;5.10;;;4.70;;
18576;SDS011;9418;52.694;13.294;2023-11-21T01:31:13;5.57;;;5.03;;
18576;SDS011;9418;52.694;13.294;2023-11-21T01:33:40;6.20;;;5.70;;
18576;SDS011;9418;52.694;13.294;2023-11-21T01:36:09;5.70;;;5.23;;
18576;SDS011;9418;52.694;13.294;2023-11-21T01:38:36;6.23;;;5.50;;
18576;SDS011;9418;52.694;13.294;2023-11-21T01:41:02;7.67;;;6.90;;
18576;SDS011;9418;52.694;13.294;2023-11-21T01:43:29;6.50;;;5.90;;
18576;SDS011;9418;52.694;13.294;2023-11-21T01:45:56;7.77;;;6.97;;
18576;SDS011;9418;52.694;13.294;2023-11-21T01:48:23;14.60;;;6.33;;
18576;SDS011;9418;52.694;13.294;2023-11-21T01:50:50;6.40;;;5.73;;
18576;SDS011;9418;52.694;13.294;2023-11-21T01:53:19;6.10;;;5.60;;
18576;SDS011;9418;52.694;13.294;2023-11-21T01:55:45;6.90;;;5.90;;
18576;SDS011;9418;52.694;13.294;2023-11-21T01:58:12;7.10;;;6.40;;
18576;SDS011;9418;52.694;13.294;2023-11-21T02:00:39;6.00;;;5.50;;
18576;SDS011;9418;52.694;13.294;2023-11-21T02:03:06;5.90;;;5.47;;
18576;SDS011;9418;52.694;13.294;2023-11-21T02:05:33;7.83;;;6.53;;
18576;SDS011;9418;52.694;13.294;2023-11-21T02:07:59;7.27;;;6.67;;
18576;SDS011;9418;52.694;13.294;2023-11-21T02:10:28;11.10;;;5.70;;
18576;SDS011;9418;52.694;13.294;2023-11-21T02:12:56;7.10;;;6.40;;
18576;SDS011;9418;52.694;13.294;2023-11-21T02:15:23;7.03;;;6.43;;
18576;SDS011;9418;52.694;13.294;2023-11-21T02:17:53;6.03;;;5.53;;
18576;SDS011;9418;52.694;13.294;2023-11-21T02:20:23;6.73;;;6.10;;
18576;SDS011;9418;52.694;13.294;2023-11-21T02:22:53;6.37;;;5.70;;
18576;SDS011;9418;52.694;13.294;2023-11-21T02:25:22;8.20;;;5.70;;
18576;SDS011;9418;52.694;13.294;2023-11-21T02:27:49;7.37;;;6.67;;
18576;SDS011;9418;52.694;13.294;2023-11-21T02:30:16;6.80;;;6.20;;
18576;SDS011;9418;52.694;13.294;2023-11-21T02:32:43;7.47;;;6.67;;
18576;SDS011;9418;52.694;13.294;2023-11-21T02:35:11;7.67;;;6.40;;
18576;SDS011;9418;52.694;13.294;2023-11-21T02:37:38;7.10;;;6.50;;
18576;SDS011;9418;52.694;13.294;2023-11-21T02:40:08;7.20;;;6.47;;
18576;SDS011;9418;52.694;13.294;2023-11-21T02:42:37;14.13;;;7.27;;
18576;SDS011;9418;52.694;13.294;2023-11-21T02:45:04;8.23;;;7.43;;
18576;SDS011;9418;52.694;13.294;2023-11-21T02:47:32;6.53;;;5.93;;
18576;SDS011;9418;52.694;13.294;2023-11-21T02:49:59;17.63;;;7.20;;
18576;SDS011;9418;52.694;13.294;2023-11-21T02:52:25;7.53;;;6.73;;
18576;SDS011;9418;52.694;13.294;2023-11-21T02:54:52;9.27;;;7.20;;
18576;SDS011;9418;52.694;13.294;2023-11-21T02:57:20;7.87;;;7.07;;
18576;SDS011;9418;52.694;13.294;2023-11-21T02:59:46;8.07;;;7.27;;
18576;SDS011;9418;52.694;13.294;2023-11-21T03:02:13;8.03;;;6.90;;
18576;SDS011;9418;52.694;13.294;2023-11-21T03:04:41;13.80;;;7.93;;
18576;SDS011;9418;52.694;13.294;2023-11-21T03:07:08;7.93;;;7.10;;
18576;SDS011;9418;52.694;13.294;2023-11-21T03:09:35;8.10;;;7.10;;
18576;SDS011;9418;52.694;13.294;2023-11-21T03:12:01;8.00;;;7.23;;
18576;SDS011;9418;52.694;13.294;2023-11-21T03:14:29;13.93;;;7.40;;
18576;SDS011;9418;52.694;13.294;2023-11-21T03:16:55;12.53;;;7.40;;
18576;SDS011;9418;52.694;13.294;2023-11-21T03:19:22;8.30;;;7.40;;
18576;SDS011;9418;52.694;13.294;2023-11-21T03:21:49;9.03;;;8.10;;
18576;SDS011;9418;52.694;13.294;2023-11-21T03:24:18;12.90;;;7.90;;
18576;SDS011;9418;52.694;13.294;2023-11-21T03:26:45;8.90;;;7.93;;
18576;SDS011;9418;52.694;13.294;2023-11-21T03:29:12;8.90;;;8.00;;
18576;SDS011;9418;52.694;13.294;2023-11-21T03:31:40;8.67;;;7.73;;
18576;SDS011;9418;52.694;13.294;2023-11-21T03:34:10;9.13;;;8.23;;
18576;SDS011;9418;52.694;13.294;2023-11-21T03:36:41;9.80;;;8.40;;
18576;SDS011;9418;52.694;13.294;2023-11-21T03:39:09;9.30;;;8.37;;
18576;SDS011;9418;52.694;13.294;2023-11-21T03:41:35;8.70;;;7.80;;
18576;SDS011;9418;52.694;13.294;2023-11-21T03:44:02;8.60;;;7.60;;
18576;SDS011;9418;52.694;13.294;2023-11-21T03:46:29;10.50;;;7.93;;
18576;SDS011;9418;52.694;13.294;2023-11-21T03:48:57;8.83;;;7.93;;
18576;SDS011;9418;52.694;13.294;2023-11-21T03:51:23;8.97;;;8.10;;
18576;SDS011;9418;52.694;13.294;2023-11-21T03:53:50;12.33;;;8.07;;
18576;SDS011;9418;52.694;13.294;2023-11-21T03:56:16;10.03;;;7.93;;
18576;SDS011;9418;52.694;13.294;2023-11-21T03:58:43;9.30;;;8.40;;
18576;SDS011;9418;52.694;13.294;2023-11-21T04:01:09;9.40;;;8.10;;
18576;SDS011;9418;52.694;13.294;2023-11-21T04:03:36;8.73;;;7.83;;
18576;SDS011;9418;52.694;13.294;2023-11-21T04:06:05;17.70;;;8.53;;
18576;SDS011;9418;52.694;13.294;2023-11-21T04:08:32;11.07;;;8.13;;
18576;SDS011;9418;52.694;13.294;2023-11-21T04:10:59;9.47;;;8.07;;
18576;SDS011;9418;52.694;13.294;2023-11-21T04:13:26;10.50;;;8.33;;
18576;SDS011;9418;52.694;13.294;2023-11-21T04:15:52;10.27;;;8.30;;
18576;SDS011;9418;52.694;13.294;2023-11-21T04:18:19;10.20;;;7.90;;
18576;SDS011;9418;52.694;13.294;2023-11-21T04:20:45;10.60;;;8.40;;
18576;SDS011;9418;52.694;13.294;2023-11-21T04:23:13;9.60;;;8.00;;
18576;SDS011;9418;52.694;13.294;2023-11-21T04:25:40;10.70;;;7.73;;
18576;SDS011;9418;52.694;13.294;2023-11-21T04:28:06;8.33;;;6.93;;
18576;SDS011;9418;52.694;13.294;2023-11-21T04:30:33;8.87;;;7.70;;
18576;SDS011;9418;52.694;13.294;2023-11-21T04:33:00;8.30;;;7.50;;
18576;SDS011;9418;52.694;13.294;2023-11-21T04:35:27;7.90;;;7.10;;
18576;SDS011;9418;52.694;13.294;2023-11-21T04:37:54;10.30;;;8.17;;
18576;SDS011;9418;52.694;13.294;2023-11-21T04:40:23;8.63;;;7.47;;
18576;SDS011;9418;52.694;13.294;2023-11-21T04:42:52;7.77;;;7.07;;
18576;SDS011;9418;52.694;13.294;2023-11-21T04:45:18;17.43;;;6.67;;
18576;SDS011;9418;52.694;13.294;2023-11-21T04:47:45;7.90;;;6.70;;
18576;SDS011;9418;52.694;13.294;2023-11-21T04:50:11;9.40;;;7.33;;
18576;SDS011;9418;52.694;13.294;2023-11-21T04:52:38;7.60;;;6.80;;
18576;SDS011;9418;52.694;13.294;2023-11-21T04:55:04;7.63;;;6.27;;
18576;SDS011;9418;52.694;13.294;2023-11-21T04:57:36;9.67;;;6.43;;
18576;SDS011;9418;52.694;13.294;2023-11-21T05:00:03;7.43;;;6.77;;
18576;SDS011;9418;52.694;13.294;2023-11-21T05:02:31;7.87;;;6.97;;
18576;SDS011;9418;52.694;13.294;2023-11-21T05:04:59;7.53;;;6.73;;
18576;SDS011;9418;52.694;13.294;2023-11-21T05:07:25;7.20;;;6.50;;
18576;SDS011;9418;52.694;13.294;2023-11-21T05:09:53;8.43;;;6.70;;
18576;SDS011;9418;52.694;13.294;2023-11-21T05:12:21;8.73;;;6.63;;
18576;SDS011;9418;52.694;13.294;2023-11-21T05:14:49;9.53;;;7.20;;
18576;SDS011;9418;52.694;13.294;2023-11-21T05:17:16;6.77;;;6.07;;
18576;SDS011;9418;52.694;13.294;2023-11-21T05:19:43;7.93;;;7.10;;
18576;SDS011;9418;52.694;13.294;2023-11-21T05:22:11;6.13;;;5.63;;
18576;SDS011;9418;52.694;13.294;2023-11-21T05:24:38;6.77;;;6.07;;
18576;SDS011;9418;52.694;13.294;2023-11-21T05:27:05;7.30;;;6.60;;
18576;SDS011;9418;52.694;13.294;2023-11-21T05:29:31;7.90;;;7.10;;
18576;SDS011;9418;52.694;13.294;2023-11-21T05:31:59;7.97;;;7.17;;
18576;SDS011;9418;52.694;13.294;2023-11-21T05:34:26;12.03;;;7.80;;
18576;SDS011;9418;52.694;13.294;2023-11-21T05:36:52;17.20;;;14.87;;
18576;SDS011;9418;52.694;13.294;2023-11-21T05:39:19;10.70;;;9.60;;
18576;SDS011;9418;52.694;13.294;2023-11-21T05:41:46;9.23;;;8.20;;
18576;SDS011;9418;52.694;13.294;2023-11-21T05:44:14;8.93;;;8.13;;
18576;SDS011;9418;52.694;13.294;2023-11-21T05:46:41;10.17;;;8.80;;
18576;SDS011;9418;52.694;13.294;2023-11-21T05:49:09;8.10;;;6.67;;
18576;SDS011;9418;52.694;13.294;2023-11-21T05:51:36;8.10;;;7.30;;
18576;SDS011;9418;52.694;13.294;2023-11-21T05:54:03;8.20;;;6.53;;
18576;SDS011;9418;52.694;13.294;2023-11-21T05:56:30;6.77;;;6.07;;
18576;SDS011;9418;52.694;13.294;2023-11-21T05:58:56;6.10;;;5.60;;
18576;SDS011;9418;52.694;13.294;2023-11-21T06:01:23;6.90;;;6.30;;
18576;SDS011;9418;52.694;13.294;2023-11-21T06:03:50;7.77;;;6.60;;
18576;SDS011;9418;52.694;13.294;2023-11-21T06:06:17;7.87;;;6.10;;
18576;SDS011;9418;52.694;13.294;2023-11-21T06:08:44;9.17;;;7.43;;
18576;SDS011;9418;52.694;13.294;2023-11-21T06:11:11;12.37;;;10.20;;
18576;SDS011;9418;52.694;13.294;2023-11-21T06:13:37;6.60;;;6.00;;
18576;SDS011;9418;52.694;13.294;2023-11-21T06:16:04;5.23;;;4.83;;
18576;SDS011;9418;52.694;13.294;2023-11-21T06:18:31;5.27;;;4.87;;
18576;SDS011;9418;52.694;13.294;2023-11-21T06:20:58;7.83;;;4.80;;
18576;SDS011;9418;52.694;13.294;2023-11-21T06:23:27;8.40;;;5.53;;
18576;SDS011;9418;52.694;13.294;2023-11-21T06:25:53;4.77;;;4.30;;
18576;SDS011;9418;52.694;13.294;2023-11-21T06:28:20;5.10;;;4.60;;
18576;SDS011;9418;52.694;13.294;2023-11-21T06:30:46;4.30;;;4.00;;
18576;SDS011;9418;52.694;13.294;2023-11-21T06:33:14;4.23;;;3.93;;
18576;SDS011;9418;52.694;13.294;2023-11-21T06:35:41;3.93;;;3.63;;
18576;SDS011;9418;52.694;13.294;2023-11-21T06:38:07;4.40;;;4.00;;
18576;SDS011;9418;52.694;13.294;2023-11-21T06:40:35;4.40;;;4.10;;
18576;SDS011;9418;52.694;13.294;2023-11-21T06:43:02;4.47;;;4.13;;
18576;SDS011;9418;52.694;13.294;2023-11-21T06:45:30;4.13;;;3.73;;
18576;SDS011;9418;52.694;13.294;2023-11-21T06:47:56;4.30;;;3.60;;
18576;SDS011;9418;52.694;13.294;2023-11-21T06:50:23;4.90;;;4.40;;
18576;SDS011;9418;52.694;13.294;2023-11-21T06:52:49;4.57;;;4.17;;
18576;SDS011;9418;52.694;13.294;2023-11-21T06:55:16;4.33;;;3.93;;
18576;SDS011;9418;52.694;13.294;2023-11-21T06:57:44;3.80;;;3.50;;
18576;SDS011;9418;52.694;13.294;2023-11-21T07:00:12;4.43;;;4.03;;
18576;SDS011;9418;52.694;13.294;2023-11-21T07:02:42;3.60;;;3.30;;
18576;SDS011;9418;52.694;13.294;2023-11-21T07:05:09;4.23;;;3.87;;
18576;SDS011;9418;52.694;13.294;2023-11-21T07:07:36;4.03;;;3.77;;
18576;SDS011;9418;52.694;13.294;2023-11-21T07:10:04;5.93;;;4.00;;
18576;SDS011;9418;52.694;13.294;2023-11-21T07:12:31;4.03;;;3.60;;
18576;SDS011;9418;52.694;13.294;2023-11-21T07:14:59;4.53;;;3.73;;
18576;SDS011;9418;52.694;13.294;2023-11-21T07:17:25;4.77;;;3.50;;
18576;SDS011;9418;52.694;13.294;2023-11-21T07:19:52;4.10;;;3.80;;
18576;SDS011;9418;52.694;13.294;2023-11-21T07:22:20;4.40;;;4.10;;
18576;SDS011;9418;52.694;13.294;2023-11-21T07:24:47;6.87;;;5.47;;
18576;SDS011;9418;52.694;13.294;2023-11-21T07:27:14;26.60;;;18.20;;
18576;SDS011;9418;52.694;13.294;2023-11-21T07:29:41;17.20;;;10.63;;
18576;SDS011;9418;52.694;13.294;2023-11-21T07:32:09;5.80;;;5.30;;
18576;SDS011;9418;52.694;13.294;2023-11-21T07:34:35;7.20;;;6.50;;
18576;SDS011;9418;52.694;13.294;2023-11-21T07:37:02;5.33;;;4.93;;
18576;SDS011;9418;52.694;13.294;2023-11-21T07:39:29;7.07;;;5.10;;
18576;SDS011;9418;52.694;13.294;2023-11-21T07:41:55;20.97;;;15.80;;
18576;SDS011;9418;52.694;13.294;2023-11-21T07:44:23;12.20;;;10.10;;
18576;SDS011;9418;52.694;13.294;2023-11-21T07:46:49;10.27;;;9.27;;
18576;SDS011;9418;52.694;13.294;2023-11-21T07:49:17;8.90;;;8.00;;
18576;SDS011;9418;52.694;13.294;2023-11-21T07:51:46;12.83;;;10.27;;
18576;SDS011;9418;52.694;13.294;2023-11-21T07:54:12;9.40;;;7.93;;
18576;SDS011;9418;52.694;13.294;2023-11-21T07:56:39;8.67;;;7.80;;
18576;SDS011;9418;52.694;13.294;2023-11-21T07:59:05;12.80;;;11.27;;
18576;SDS011;9418;52.694;13.294;2023-11-21T08:01:32;6.53;;;5.20;;
18576;SDS011;9418;52.694;13.294;2023-11-21T08:03:59;5.13;;;4.63;;
18576;SDS011;9418;52.694;13.294;2023-11-21T08:06:29;3.93;;;3.57;;
18576;SDS011;9418;52.694;13.294;2023-11-21T08:08:56;4.20;;;3.90;;
18576;SDS011;9418;52.694;13.294;2023-11-21T08:11:23;4.03;;;3.73;;
18576;SDS011;9418;52.694;13.294;2023-11-21T08:13:51;4.40;;;4.10;;
18576;SDS011;9418;52.694;13.294;2023-11-21T08:16:18;4.90;;;4.60;;
18576;SDS011;9418;52.694;13.294;2023-11-21T08:18:45;4.60;;;4.30;;
18576;SDS011;9418;52.694;13.294;2023-11-21T08:21:12;4.03;;;3.63;;
18576;SDS011;9418;52.694;13.294;2023-11-21T08:23:40;3.63;;;3.37;;
18576;SDS011;9418;52.694;13.294;2023-11-21T08:26:06;4.07;;;3.73;;
18576;SDS011;9418;52.694;13.294;2023-11-21T08:28:34;3.43;;;3.23;;
18576;SDS011;9418;52.694;13.294;2023-11-21T08:31:00;4.80;;;3.90;;
18576;SDS011;9418;52.694;13.294;2023-11-21T08:33:27;3.70;;;3.30;;
18576;SDS011;9418;52.694;13.294;2023-11-21T08:35:53;3.60;;;3.30;;
18576;SDS011;9418;52.694;13.294;2023-11-21T08:38:20;6.70;;;3.23;;
18576;SDS011;9418;52.694;13.294;2023-11-21T08:40:48;4.30;;;3.90;;
18576;SDS011;9418;52.694;13.294;2023-11-21T08:43:15;3.50;;;3.27;;
18576;SDS011;9418;52.694;13.294;2023-11-21T08:45:44;3.10;;;2.90;;
18576;SDS011;9418;52.694;13.294;2023-11-21T08:48:11;2.83;;;2.63;;
18576;SDS011;9418;52.694;13.294;2023-11-21T08:50:38;3.40;;;3.10;;
18576;SDS011;9418;52.694;13.294;2023-11-21T08:53:05;4.93;;;3.43;;
18576;SDS011;9418;52.694;13.294;2023-11-21T08:55:31;3.40;;;3.10;;
18576;SDS011;9418;52.694;13.294;2023-11-21T08:58:03;3.77;;;3.23;;
18576;SDS011;9418;52.694;13.294;2023-11-21T09:00:31;3.27;;;3.07;;
18576;SDS011;9418;52.694;13.294;2023-11-21T09:02:58;2.80;;;2.70;;
18576;SDS011;9418;52.694;13.294;2023-11-21T09:05:25;2.57;;;2.37;;
18576;SDS011;9418;52.694;13.294;2023-11-21T09:07:51;3.30;;;3.10;;
18576;SDS011;9418;52.694;13.294;2023-11-21T09:10:18;2.83;;;2.60;;
18576;SDS011;9418;52.694;13.294;2023-11-21T09:12:45;6.80;;;6.10;;
18576;SDS011;9418;52.694;13.294;2023-11-21T09:15:13;6.10;;;5.47;;
18576;SDS011;9418;52.694;13.294;2023-11-21T09:17:40;17.80;;;14.27;;
18576;SDS011;9418;52.694;13.294;2023-11-21T09:20:07;8.77;;;7.87;;
18576;SDS011;9418;52.694;13.294;2023-11-21T09:22:35;10.83;;;9.50;;
18576;SDS011;9418;52.694;13.294;2023-11-21T09:25:02;4.80;;;4.40;;
18576;SDS011;9418;52.694;13.294;2023-11-21T09:27:30;5.07;;;3.60;;
18576;SDS011;9418;52.694;13.294;2023-11-21T09:29:57;3.73;;;3.43;;
18576;SDS011;9418;52.694;13.294;2023-11-21T09:32:25;3.50;;;3.20;;
18576;SDS011;9418;52.694;13.294;2023-11-21T09:34:51;3.43;;;3.23;;
18576;SDS011;9418;52.694;13.294;2023-11-21T09:37:20;3.70;;;3.33;;
18576;SDS011;9418;52.694;13.294;2023-11-21T09:39:46;6.60;;;3.60;;
18576;SDS011;9418;52.694;13.294;2023-11-21T09:42:15;3.30;;;3.00;;
18576;SDS011;9418;52.694;13.294;2023-11-21T09:44:45;3.43;;;3.07;;
18576;SDS011;9418;52.694;13.294;2023-11-21T09:47:18;4.63;;;4.13;;
18576;SDS011;9418;52.694;13.294;2023-11-21T09:49:47;3.13;;;2.93;;
18576;SDS011;9418;52.694;13.294;2023-11-21T09:52:17;4.10;;;3.70;;
18576;SDS011;9418;52.694;13.294;2023-11-21T09:54:50;3.37;;;3.10;;
18576;SDS011;9418;52.694;13.294;2023-11-21T09:57:18;5.00;;;3.50;;
18576;SDS011;9418;52.694;13.294;2023-11-21T09:59:46;3.27;;;3.07;;
18576;SDS011;9418;52.694;13.294;2023-11-21T10:02:15;4.07;;;3.70;;
18576;SDS011;9418;52.694;13.294;2023-11-21T10:04:43;2.90;;;2.80;;
18576;SDS011;9418;52.694;13.294;2023-11-21T10:07:11;3.70;;;3.00;;
18576;SDS011;9418;52.694;13.294;2023-11-21T10:09:40;3.70;;;3.43;;
18576;SDS011;9418;52.694;13.294;2023-11-21T10:12:08;3.90;;;3.60;;
18576;SDS011;9418;52.694;13.294;2023-11-21T10:14:37;3.57;;;3.27;;
18576;SDS011;9418;52.694;13.294;2023-11-21T10:17:07;3.63;;;3.20;;
18576;SDS011;9418;52.694;13.294;2023-11-21T10:19:34;3.90;;;3.60;;
18576;SDS011;9418;52.694;13.294;2023-11-21T10:22:02;5.80;;;4.07;;
18576;SDS011;9418;52.694;13.294;2023-11-21T10:24:30;4.00;;;3.60;;
18576;SDS011;9418;52.694;13.294;2023-11-21T10:26:56;4.17;;;3.33;;
18576;SDS011;9418;52.694;13.294;2023-11-21T10:29:23;4.00;;;3.70;;
18576;SDS011;9418;52.694;13.294;2023-11-21T10:31:51;4.63;;;4.23;;
18576;SDS011;9418;52.694;13.294;2023-11-21T10:34:20;6.40;;;4.10;;
18576;SDS011;9418;52.694;13.294;2023-11-21T10:36:46;3.77;;;3.47;;
18576;SDS011;9418;52.694;13.294;2023-11-21T10:39:13;3.97;;;3.67;;
18576;SDS011;9418;52.694;13.294;2023-11-21T10:41:44;6.97;;;3.70;;
18576;SDS011;9418;52.694;13.294;2023-11-21T10:44:13;3.53;;;3.33;;
18576;SDS011;9418;52.694;13.294;2023-11-21T10:46:45;3.93;;;3.60;;
18576;SDS011;9418;52.694;13.294;2023-11-21T10:49:15;3.43;;;3.13;;
18576;SDS011;9418;52.694;13.294;2023-11-21T10:51:43;4.93;;;4.40;;
18576;SDS011;9418;52.694;13.294;2023-11-21T10:54:10;4.40;;;3.70;;
18576;SDS011;9418;52.694;13.294;2023-11-21T10:56:37;4.67;;;4.27;;
18576;SDS011;9418;52.694;13.294;2023-11-21T10:59:07;4.37;;;3.90;;
18576;SDS011;9418;52.694;13.294;2023-11-21T11:01:36;5.30;;;4.67;;
18576;SDS011;9418;52.694;13.294;2023-11-21T11:04:03;6.13;;;4.97;;
18576;SDS011;9418;52.694;13.294;2023-11-21T11:06:39;5.60;;;3.93;;
18576;SDS011;9418;52.694;13.294;2023-11-21T11:09:07;10.53;;;4.30;;
18576;SDS011;9418;52.694;13.294;2023-11-21T11:11:34;6.77;;;5.07;;
18576;SDS011;9418;52.694;13.294;2023-11-21T11:14:04;8.10;;;6.00;;
18576;SDS011;9418;52.694;13.294;2023-11-21T11:16:32;8.90;;;5.50;;
18576;SDS011;9418;52.694;13.294;2023-11-21T11:19:00;7.00;;;5.97;;
18576;SDS011;9418;52.694;13.294;2023-11-21T11:21:28;7.60;;;6.17;;
18576;SDS011;9418;52.694;13.294;2023-11-21T11:24:15;8.27;;;6.10;;
18576;SDS011;9418;52.694;13.294;2023-11-21T11:26:51;6.67;;;5.53;;
18576;SDS011;9418;52.694;13.294;2023-11-21T11:29:26;7.10;;;6.00;;
18576;SDS011;9418;52.694;13.294;2023-11-21T11:32:06;7.50;;;5.70;;
18576;SDS011;9418;52.694;13.294;2023-11-21T11:34:44;7.67;;;5.10;;
18576;SDS011;9418;52.694;13.294;2023-11-21T11:37:16;6.73;;;5.60;;
18576;SDS011;9418;52.694;13.294;2023-11-21T11:39:43;6.30;;;5.00;;
18576;SDS011;9418;52.694;13.294;2023-11-21T11:42:11;10.00;;;5.47;;
18576;SDS011;9418;52.694;13.294;2023-11-21T11:44:49;7.00;;;4.93;;
18576;SDS011;9418;52.694;13.294;2023-11-21T11:47:20;5.80;;;5.17;;
18576;SDS011;9418;52.694;13.294;2023-11-21T11:50:05;7.70;;;5.60;;
18576;SDS011;9418;52.694;13.294;2023-11-21T11:52:38;10.57;;;7.30;;
18576;SDS011;9418;52.694;13.294;2023-11-21T11:55:06;10.73;;;6.40;;
18576;SDS011;9418;52.694;13.294;2023-11-21T11:57:35;8.37;;;6.40;;
18576;SDS011;9418;52.694;13.294;2023-11-21T12:00:07;9.33;;;6.47;;
18576;SDS011;9418;52.694;13.294;2023-11-21T12:02:36;8.03;;;6.27;;
18576;SDS011;9418;52.694;13.294;2023-11-21T12:05:07;10.07;;;6.20;;
18576;SDS011;9418;52.694;13.294;2023-11-21T12:07:45;10.97;;;6.70;;
18576;SDS011;9418;52.694;13.294;2023-11-21T12:10:13;10.50;;;6.30;;
18576;SDS011;9418;52.694;13.294;2023-11-21T12:12:42;8.63;;;7.03;;
18576;SDS011;9418;52.694;13.294;2023-11-21T12:15:11;6.30;;;5.70;;
18576;SDS011;9418;52.694;13.294;2023-11-21T12:17:39;6.20;;;5.60;;
18576;SDS011;9418;52.694;13.294;2023-11-21T12:20:08;5.33;;;4.80;;
18576;SDS011;9418;52.694;13.294;2023-11-21T12:22:41;5.77;;;5.27;;
18576;SDS011;9418;52.694;13.294;2023-11-21T12:25:08;5.77;;;5.27;;
18576;SDS011;9418;52.694;13.294;2023-11-21T12:27:38;6.40;;;5.80;;
18576;SDS011;9418;52.694;13.294;2023-11-21T12:30:05;7.10;;;6.40;;
18576;SDS011;9418;52.694;13.294;2023-11-21T12:32:39;7.50;;;6.70;;
18576;SDS011;9418;52.694;13.294;2023-11-21T12:35:06;6.50;;;5.90;;
18576;SDS011;9418;52.694;13.294;2023-11-21T12:37:34;6.53;;;5.93;;
18576;SDS011;9418;52.694;13.294;2023-11-21T12:40:01;7.03;;;6.33;;
18576;SDS011;9418;52.694;13.294;2023-11-21T12:42:29;6.80;;;6.20;;
18576;SDS011;9418;52.694;13.294;2023-11-21T12:45:09;18.23;;;7.27;;
18576;SDS011;9418;52.694;13.294;2023-11-21T12:47:46;9.13;;;8.10;;
18576;SDS011;9418;52.694;13.294;2023-11-21T12:50:14;10.67;;;9.13;;
18576;SDS011;9418;52.694;13.294;2023-11-21T12:52:41;13.70;;;10.53;;
18576;SDS011;9418;52.694;13.294;2023-11-21T12:55:12;16.53;;;12.40;;
18576;SDS011;9418;52.694;13.294;2023-11-21T12:57:43;10.30;;;9.20;;
18576;SDS011;9418;52.694;13.294;2023-11-21T13:00:12;22.70;;;16.27;;
18576;SDS011;9418;52.694;13.294;2023-11-21T13:02:54;15.37;;;11.57;;
18576;SDS011;9418;52.694;13.294;2023-11-21T13:05:26;13.80;;;10.53;;
18576;SDS011;9418;52.694;13.294;2023-11-21T13:07:56;23.70;;;18.40;;
18576;SDS011;9418;52.694;13.294;2023-11-21T13:10:24;29.97;;;23.90;;
18576;SDS011;9418;52.694;13.294;2023-11-21T13:12:55;15.70;;;13.37;;
18576;SDS011;9418;52.694;13.294;2023-11-21T13:15:24;16.30;;;13.93;;
18576;SDS011;9418;52.694;13.294;2023-11-21T13:17:53;13.93;;;12.33;;
18576;SDS011;9418;52.694;13.294;2023-11-21T13:20:21;11.00;;;9.30;;
18576;SDS011;9418;52.694;13.294;2023-11-21T13:22:49;13.93;;;10.47;;
18576;SDS011;9418;52.694;13.294;2023-11-21T13:25:19;15.33;;;9.90;;
18576;SDS011;9418;52.694;13.294;2023-11-21T13:27:46;14.00;;;10.60;;
18576;SDS011;9418;52.694;13.294;2023-11-21T13:30:13;18.53;;;10.67;;
18576;SDS011;9418;52.694;13.294;2023-11-21T13:32:41;13.60;;;10.90;;
18576;SDS011;9418;52.694;13.294;2023-11-21T13:35:09;17.20;;;12.80;;
18576;SDS011;9418;52.694;13.294;2023-11-21T13:37:46;15.37;;;11.63;;
18576;SDS011;9418;52.694;13.294;2023-11-21T13:40:14;18.87;;;13.20;;
18576;SDS011;9418;52.694;13.294;2023-11-21T13:42:45;19.63;;;14.93;;
18576;SDS011;9418;52.694;13.294;2023-11-21T13:45:11;27.17;;;17.53;;
18576;SDS011;9418;52.694;13.294;2023-11-21T13:47:38;24.83;;;16.67;;
18576;SDS011;9418;52.694;13.294;2023-11-21T13:50:06;31.63;;;19.07;;
18576;SDS011;9418;52.694;13.294;2023-11-21T13:52:43;28.30;;;18.97;;
18576;SDS011;9418;52.694;13.294;2023-11-21T13:55:10;32.67;;;20.10;;
18576;SDS011;9418;52.694;13.294;2023-11-21T13:57:40;24.13;;;17.13;;
18576;SDS011;9418;52.694;13.294;2023-11-21T14:00:08;32.13;;;20.53;;
18576;SDS011;9418;52.694;13.294;2023-11-21T14:02:56;28.73;;;18.53;;
18576;SDS011;9418;52.694;13.294;2023-11-21T14:05:25;27.90;;;18.10;;
18576;SDS011;9418;52.694;13.294;2023-11-21T14:07:55;22.53;;;16.83;;
18576;SDS011;9418;52.694;13.294;2023-11-21T14:10:27;25.17;;;17.10;;
18576;SDS011;9418;52.694;13.294;2023-11-21T14:13:02;23.50;;;15.70;;
18576;SDS011;9418;52.694;13.294;2023-11-21T14:15:29;24.07;;;15.33;;
18576;SDS011;9418;52.694;13.294;2023-11-21T14:17:58;17.90;;;12.93;;
18576;SDS011;9418;52.694;13.294;2023-11-21T14:20:27;18.90;;;14.50;;
18576;SDS011;9418;52.694;13.294;2023-11-21T14:22:56;17.53;;;12.70;;
18576;SDS011;9418;52.694;13.294;2023-11-21T14:25:23;17.50;;;12.10;;
18576;SDS011;9418;52.694;13.294;2023-11-21T14:27:50;20.03;;;13.20;;
18576;SDS011;9418;52.694;13.294;2023-11-21T14:30:17;17.57;;;13.73;;
18576;SDS011;9418;52.694;13.294;2023-11-21T14:32:45;16.67;;;12.70;;
18576;SDS011;9418;52.694;13.294;2023-11-21T14:35:12;18.63;;;12.70;;
18576;SDS011;9418;52.694;13.294;2023-11-21T14:37:39;17.80;;;11.43;;
18576;SDS011;9418;52.694;13.294;2023-11-21T14:40:07;17.23;;;12.53;;
18576;SDS011;9418;52.694;13.294;2023-11-21T14:42:35;19.90;;;14.47;;
18576;SDS011;9418;52.694;13.294;2023-11-21T14:45:05;18.10;;;13.10;;
18576;SDS011;9418;52.694;13.294;2023-11-21T14:47:33;21.33;;;15.10;;